sensor_id;sensor_type;location;lat;lon;timestamp;pressure;altitude;pressure_sealevel;temperature;humidity
41684;BME280;27369;52.030;4.586;2023-07-20T00:00:22;107874.63;;;-144.41;100.00
41684;BME280;27369;52.030;4.586;2023-07-20T00:02:49;108388.56;;;-144.41;100.00
41684;BME280;27369;52.030;4.586;2023-07-20T00:05:15;108388.56;;;-144.41;100.00
41684;BME280;27369;52.030;4.586;2023-07-20T00:07:43;108645.53;;;-144.41;100.00
41684;BME280;27369;52.030;4.586;2023-07-20T00:10:08;108645.53;;;-144.41;100.00
41684;BME280;27369;52.030;4.586;2023-07-20T00:12:34;108645.53;;;-144.41;100.00
41684;BME280;27369;52.030;4.586;2023-07-20T00:14:59;108645.53;;;-144.41;100.00
41684;BME280;27369;52.030;4.586;2023-07-20T00:17:24;108645.53;;;-144.41;100.00
41684;BME280;27369;52.030;4.586;2023-07-20T00:19:50;108645.53;;;-144.41;100.00
41684;BME280;27369;52.030;4.586;2023-07-20T00:22:15;108645.53;;;-144.41;100.00
41684;BME280;27369;52.030;4.586;2023-07-20T00:24:40;108647.53;;;-144.41;100.00
41684;BME280;27369;52.030;4.586;2023-07-20T00:27:06;108647.53;;;-144.41;100.00
41684;BME280;27369;52.030;4.586;2023-07-20T00:29:31;108647.53;;;-144.41;100.00
41684;BME280;27369;52.030;4.586;2023-07-20T00:31:56;108647.53;;;-144.41;100.00
41684;BME280;27369;52.030;4.586;2023-07-20T00:34:21;108647.53;;;-144.41;100.00
41684;BME280;27369;52.030;4.586;2023-07-20T00:36:47;108647.53;;;-144.41;100.00
41684;BME280;27369;52.030;4.586;2023-07-20T00:39:14;108647.53;;;-144.41;100.00
41684;BME280;27369;52.030;4.586;2023-07-20T00:41:39;108647.53;;;-144.41;100.00
41684;BME280;27369;52.030;4.586;2023-07-20T00:44:04;108647.53;;;-144.41;100.00
41684;BME280;27369;52.030;4.586;2023-07-20T00:46:30;108647.53;;;-144.41;100.00
41684;BME280;27369;52.030;4.586;2023-07-20T00:48:57;108647.53;;;-144.41;100.00
41684;BME280;27369;52.030;4.586;2023-07-20T00:51:22;108647.53;;;-144.41;100.00
41684;BME280;27369;52.030;4.586;2023-07-20T00:53:48;108647.53;;;-144.41;100.00
41684;BME280;27369;52.030;4.586;2023-07-20T00:56:14;108647.53;;;-144.41;100.00
41684;BME280;27369;52.030;4.586;2023-07-20T00:58:39;108647.53;;;-144.41;100.00
41684;BME280;27369;52.030;4.586;2023-07-20T01:01:05;108647.53;;;-144.41;100.00
41684;BME280;27369;52.030;4.586;2023-07-20T01:03:30;108647.53;;;-144.41;100.00
41684;BME280;27369;52.030;4.586;2023-07-20T01:06:21;108647.53;;;-144.41;100.00
41684;BME280;27369;52.030;4.586;2023-07-20T01:11:10;108647.53;;;-144.41;100.00
41684;BME280;27369;52.030;4.586;2023-07-20T01:13:37;108647.53;;;-144.41;100.00
41684;BME280;27369;52.030;4.586;2023-07-20T01:16:03;108647.53;;;-144.41;100.00
41684;BME280;27369;52.030;4.586;2023-07-20T01:18:28;108647.53;;;-144.41;100.00
41684;BME280;27369;52.030;4.586;2023-07-20T01:20:55;108647.53;;;-144.41;100.00
41684;BME280;27369;52.030;4.586;2023-07-20T01:23:27;108647.53;;;-144.41;100.00
41684;BME280;27369;52.030;4.586;2023-07-20T01:34:06;108647.53;;;-144.41;100.00
41684;BME280;27369;52.030;4.586;2023-07-20T01:36:34;108647.53;;;-144.41;100.00
41684;BME280;27369;52.030;4.586;2023-07-20T01:39:00;108647.53;;;-144.41;100.00
41684;BME280;27369;52.030;4.586;2023-07-20T01:41:25;108647.53;;;-144.41;100.00
41684;BME280;27369;52.030;4.586;2023-07-20T01:43:50;108647.53;;;-144.41;100.00
41684;BME280;27369;52.030;4.586;2023-07-20T01:46:16;108647.53;;;-144.41;100.00
41684;BME280;27369;52.030;4.586;2023-07-20T01:48:41;108647.53;;;-144.41;100.00
41684;BME280;27369;52.030;4.586;2023-07-20T01:51:06;108647.53;;;-144.41;100.00
41684;BME280;27369;52.030;4.586;2023-07-20T01:53:32;108647.53;;;-144.41;100.00
41684;BME280;27369;52.030;4.586;2023-07-20T01:55:57;108647.53;;;-144.41;100.00
41684;BME280;27369;52.030;4.586;2023-07-20T01:58:22;108647.53;;;-144.41;100.00
41684;BME280;27369;52.030;4.586;2023-07-20T02:00:48;108647.53;;;-144.41;100.00
41684;BME280;27369;52.030;4.586;2023-07-20T02:03:13;108647.53;;;-144.41;100.00
41684;BME280;27369;52.030;4.586;2023-07-20T02:05:39;108647.53;;;-144.41;100.00
41684;BME280;27369;52.030;4.586;2023-07-20T02:08:04;108647.53;;;-144.41;100.00
41684;BME280;27369;52.030;4.586;2023-07-20T02:10:29;108647.53;;;-144.41;100.00
41684;BME280;27369;52.030;4.586;2023-07-20T02:12:55;108647.53;;;-144.41;100.00
41684;BME280;27369;52.030;4.586;2023-07-20T02:15:20;108647.53;;;-144.41;100.00
41684;BME280;27369;52.030;4.586;2023-07-20T02:17:46;108647.53;;;-144.41;100.00
41684;BME280;27369;52.030;4.586;2023-07-20T02:20:11;108647.53;;;-144.41;100.00
41684;BME280;27369;52.030;4.586;2023-07-20T02:22:37;108647.53;;;-144.41;100.00
41684;BME280;27369;52.030;4.586;2023-07-20T02:25:03;108647.53;;;-144.41;100.00
41684;BME280;27369;52.030;4.586;2023-07-20T02:27:29;108647.53;;;-144.41;100.00
41684;BME280;27369;52.030;4.586;2023-07-20T02:29:54;108647.53;;;-144.41;100.00
41684;BME280;27369;52.030;4.586;2023-07-20T02:32:19;108647.53;;;-144.41;100.00
41684;BME280;27369;52.030;4.586;2023-07-20T02:34:45;108647.53;;;-144.41;100.00
41684;BME280;27369;52.030;4.586;2023-07-20T02:37:10;108647.53;;;-144.41;100.00
41684;BME280;27369;52.030;4.586;2023-07-20T02:39:38;108647.53;;;-144.41;100.00
41684;BME280;27369;52.030;4.586;2023-07-20T02:42:03;108647.53;;;-144.41;100.00
41684;BME280;27369;52.030;4.586;2023-07-20T02:44:29;108647.53;;;-144.41;100.00
41684;BME280;27369;52.030;4.586;2023-07-20T02:46:55;108647.53;;;-144.41;100.00
41684;BME280;27369;52.030;4.586;2023-07-20T02:49:20;108647.53;;;-144.41;100.00
41684;BME280;27369;52.030;4.586;2023-07-20T02:51:45;108647.53;;;-144.41;100.00
41684;BME280;27369;52.030;4.586;2023-07-20T02:54:11;108647.53;;;-144.41;100.00
41684;BME280;27369;52.030;4.586;2023-07-20T02:56:37;108647.53;;;-144.41;100.00
41684;BME280;27369;52.030;4.586;2023-07-20T02:59:02;108647.53;;;-144.41;100.00
41684;BME280;27369;52.030;4.586;2023-07-20T03:01:28;108647.53;;;-144.41;100.00
41684;BME280;27369;52.030;4.586;2023-07-20T03:03:54;108647.53;;;-144.41;100.00
41684;BME280;27369;52.030;4.586;2023-07-20T03:06:20;108647.53;;;-144.41;100.00
41684;BME280;27369;52.030;4.586;2023-07-20T03:08:45;108647.53;;;-144.41;100.00
41684;BME280;27369;52.030;4.586;2023-07-20T03:11:15;108647.53;;;-144.41;100.00
41684;BME280;27369;52.030;4.586;2023-07-20T03:13:41;108647.53;;;-144.41;100.00
41684;BME280;27369;52.030;4.586;2023-07-20T03:16:07;108647.53;;;-144.41;100.00
41684;BME280;27369;52.030;4.586;2023-07-20T03:18:36;108647.53;;;-144.41;100.00
41684;BME280;27369;52.030;4.586;2023-07-20T03:21:01;108647.53;;;-144.41;100.00
41684;BME280;27369;52.030;4.586;2023-07-20T03:23:27;108647.53;;;-144.41;100.00
41684;BME280;27369;52.030;4.586;2023-07-20T03:25:52;108647.53;;;-144.41;100.00
41684;BME280;27369;52.030;4.586;2023-07-20T03:28:20;108647.53;;;-144.41;100.00
41684;BME280;27369;52.030;4.586;2023-07-20T03:30:45;108647.53;;;-144.41;100.00
41684;BME280;27369;52.030;4.586;2023-07-20T03:33:10;108647.53;;;-144.41;100.00
41684;BME280;27369;52.030;4.586;2023-07-20T03:35:35;108647.53;;;-144.41;100.00
41684;BME280;27369;52.030;4.586;2023-07-20T03:38:01;108647.53;;;-144.41;100.00
41684;BME280;27369;52.030;4.586;2023-07-20T03:40:26;108647.53;;;-144.41;100.00
41684;BME280;27369;52.030;4.586;2023-07-20T03:42:51;108647.53;;;-144.41;100.00
41684;BME280;27369;52.030;4.586;2023-07-20T03:45:17;108647.53;;;-144.41;100.00
41684;BME280;27369;52.030;4.586;2023-07-20T03:47:42;108647.53;;;-144.41;100.00
41684;BME280;27369;52.030;4.586;2023-07-20T03:50:09;108647.53;;;-144.41;100.00
41684;BME280;27369;52.030;4.586;2023-07-20T03:52:35;108647.53;;;-144.41;100.00
41684;BME280;27369;52.030;4.586;2023-07-20T03:55:01;108647.53;;;-144.41;100.00
41684;BME280;27369;52.030;4.586;2023-07-20T03:57:26;108647.53;;;-144.41;100.00
41684;BME280;27369;52.030;4.586;2023-07-20T03:59:51;108647.53;;;-144.41;100.00
41684;BME280;27369;52.030;4.586;2023-07-20T04:02:16;108647.53;;;-144.41;100.00
41684;BME280;27369;52.030;4.586;2023-07-20T04:04:42;108647.53;;;-144.41;100.00
41684;BME280;27369;52.030;4.586;2023-07-20T04:07:07;108647.53;;;-144.41;100.00
41684;BME280;27369;52.030;4.586;2023-07-20T04:09:32;108647.53;;;-144.41;100.00
41684;BME280;27369;52.030;4.586;2023-07-20T04:11:58;108647.53;;;-144.41;100.00
41684;BME280;27369;52.030;4.586;2023-07-20T04:14:23;108647.53;;;-144.41;100.00
41684;BME280;27369;52.030;4.586;2023-07-20T04:16:49;108647.53;;;-144.41;100.00
41684;BME280;27369;52.030;4.586;2023-07-20T04:19:16;108647.53;;;-144.41;100.00
41684;BME280;27369;52.030;4.586;2023-07-20T04:21:42;108647.53;;;-144.41;100.00
41684;BME280;27369;52.030;4.586;2023-07-20T04:24:08;108647.53;;;-144.41;100.00
41684;BME280;27369;52.030;4.586;2023-07-20T04:26:33;108647.53;;;-144.41;100.00
41684;BME280;27369;52.030;4.586;2023-07-20T04:28:59;108647.53;;;-144.41;100.00
41684;BME280;27369;52.030;4.586;2023-07-20T04:31:27;108647.53;;;-144.41;100.00
41684;BME280;27369;52.030;4.586;2023-07-20T04:33:52;108647.53;;;-144.41;100.00
41684;BME280;27369;52.030;4.586;2023-07-20T04:36:17;108647.53;;;-144.41;100.00
41684;BME280;27369;52.030;4.586;2023-07-20T04:38:47;108647.53;;;-144.41;100.00
41684;BME280;27369;52.030;4.586;2023-07-20T04:41:12;108647.53;;;-144.41;100.00
41684;BME280;27369;52.030;4.586;2023-07-20T04:43:44;108647.53;;;-144.41;100.00
41684;BME280;27369;52.030;4.586;2023-07-20T04:46:12;108647.53;;;-144.41;100.00
41684;BME280;27369;52.030;4.586;2023-07-20T04:48:37;108647.53;;;-144.41;100.00
41684;BME280;27369;52.030;4.586;2023-07-20T04:51:03;108647.53;;;-144.41;100.00
41684;BME280;27369;52.030;4.586;2023-07-20T04:53:28;108647.53;;;-144.41;100.00
41684;BME280;27369;52.030;4.586;2023-07-20T04:55:54;108647.53;;;-144.41;100.00
41684;BME280;27369;52.030;4.586;2023-07-20T04:58:20;108647.53;;;-144.41;100.00
41684;BME280;27369;52.030;4.586;2023-07-20T05:00:45;108647.53;;;-144.41;100.00
41684;BME280;27369;52.030;4.586;2023-07-20T05:03:11;108647.53;;;-144.41;100.00
41684;BME280;27369;52.030;4.586;2023-07-20T05:05:36;108647.53;;;-144.41;100.00
41684;BME280;27369;52.030;4.586;2023-07-20T05:08:03;108647.53;;;-144.41;100.00
41684;BME280;27369;52.030;4.586;2023-07-20T05:10:28;108647.53;;;-144.41;100.00
41684;BME280;27369;52.030;4.586;2023-07-20T05:12:54;108647.53;;;-144.41;100.00
41684;BME280;27369;52.030;4.586;2023-07-20T05:15:19;108647.53;;;-144.41;100.00
41684;BME280;27369;52.030;4.586;2023-07-20T05:17:44;108647.53;;;-144.41;100.00
41684;BME280;27369;52.030;4.586;2023-07-20T05:20:10;108647.53;;;-144.41;100.00
41684;BME280;27369;52.030;4.586;2023-07-20T05:22:35;108647.53;;;-144.41;100.00
41684;BME280;27369;52.030;4.586;2023-07-20T05:25:01;108647.53;;;-144.41;100.00
41684;BME280;27369;52.030;4.586;2023-07-20T05:27:26;108647.53;;;-144.41;100.00
41684;BME280;27369;52.030;4.586;2023-07-20T05:29:52;108647.53;;;-144.41;100.00
41684;BME280;27369;52.030;4.586;2023-07-20T05:32:17;108647.53;;;-144.41;100.00
41684;BME280;27369;52.030;4.586;2023-07-20T05:34:43;108647.53;;;-144.41;100.00
41684;BME280;27369;52.030;4.586;2023-07-20T05:37:08;108647.53;;;-144.41;100.00
41684;BME280;27369;52.030;4.586;2023-07-20T05:39:33;108647.53;;;-144.41;100.00
41684;BME280;27369;52.030;4.586;2023-07-20T05:41:58;108647.53;;;-144.41;100.00
41684;BME280;27369;52.030;4.586;2023-07-20T05:44:24;108647.53;;;-144.41;100.00
41684;BME280;27369;52.030;4.586;2023-07-20T05:46:49;108647.53;;;-144.41;100.00
41684;BME280;27369;52.030;4.586;2023-07-20T05:49:14;108647.53;;;-144.41;100.00
41684;BME280;27369;52.030;4.586;2023-07-20T05:51:40;108647.53;;;-144.41;100.00
41684;BME280;27369;52.030;4.586;2023-07-20T05:54:05;108647.53;;;-144.41;100.00
41684;BME280;27369;52.030;4.586;2023-07-20T05:56:30;108647.53;;;-144.41;100.00
41684;BME280;27369;52.030;4.586;2023-07-20T05:58:56;108647.53;;;-144.41;100.00
41684;BME280;27369;52.030;4.586;2023-07-20T06:01:21;108647.53;;;-144.41;100.00
41684;BME280;27369;52.030;4.586;2023-07-20T06:03:46;108647.53;;;-144.41;100.00
41684;BME280;27369;52.030;4.586;2023-07-20T06:06:12;108647.53;;;-144.41;100.00
41684;BME280;27369;52.030;4.586;2023-07-20T06:08:38;108647.53;;;-144.41;100.00
41684;BME280;27369;52.030;4.586;2023-07-20T06:11:03;108647.53;;;-144.41;100.00
41684;BME280;27369;52.030;4.586;2023-07-20T06:13:30;108647.53;;;-144.41;100.00
41684;BME280;27369;52.030;4.586;2023-07-20T06:15:56;108647.53;;;-144.41;100.00
41684;BME280;27369;52.030;4.586;2023-07-20T06:18:24;108647.53;;;-144.41;100.00
41684;BME280;27369;52.030;4.586;2023-07-20T06:20:50;108647.53;;;-144.41;100.00
41684;BME280;27369;52.030;4.586;2023-07-20T06:23:16;108647.53;;;-144.41;100.00
41684;BME280;27369;52.030;4.586;2023-07-20T06:25:41;108645.53;;;-144.41;100.00
41684;BME280;27369;52.030;4.586;2023-07-20T06:28:06;106846.97;;;-144.41;100.00
41684;BME280;27369;52.030;4.586;2023-07-20T06:30:33;103252.19;;;-144.41;100.00
41684;BME280;27369;52.030;4.586;2023-07-20T06:32:58;88649.19;;;-144.41;100.00
41684;BME280;27369;52.030;4.586;2023-07-20T06:35:25;61124.91;;;-144.41;100.00
41684;BME280;27369;52.030;4.586;2023-07-20T06:37:50;22733.22;;;-144.41;100.00
41684;BME280;27369;52.030;4.586;2023-07-20T06:40:15;1686.78;;;-144.41;100.00
41684;BME280;27369;52.030;4.586;2023-07-20T06:42:40;-11451.09;;;-144.41;100.00
41684;BME280;27369;52.030;4.586;2023-07-20T06:45:06;-20741.75;;;-144.41;100.00
41684;BME280;27369;52.030;4.586;2023-07-20T06:51:12;-20807.34;;;-144.41;100.00
41684;BME280;27369;52.030;4.586;2023-07-20T06:53:45;-20807.34;;;-144.41;100.00
41684;BME280;27369;52.030;4.586;2023-07-20T06:56:11;-20807.34;;;-144.41;100.00
41684;BME280;27369;52.030;4.586;2023-07-20T06:58:36;-20807.34;;;-144.41;100.00
41684;BME280;27369;52.030;4.586;2023-07-20T07:01:05;-20807.34;;;-144.41;100.00
41684;BME280;27369;52.030;4.586;2023-07-20T07:03:31;-20807.34;;;-144.41;100.00
41684;BME280;27369;52.030;4.586;2023-07-20T07:05:57;-20807.34;;;-144.41;100.00
41684;BME280;27369;52.030;4.586;2023-07-20T07:08:22;-19811.00;;;-144.41;100.00
41684;BME280;27369;52.030;4.586;2023-07-20T07:10:47;-13337.91;;;-144.41;100.00
41684;BME280;27369;52.030;4.586;2023-07-20T07:13:13;-5106.28;;;-144.41;100.00
41684;BME280;27369;52.030;4.586;2023-07-20T07:15:38;641.38;;;-144.41;100.00
41684;BME280;27369;52.030;4.586;2023-07-20T07:18:03;10908.44;;;-144.41;100.00
41684;BME280;27369;52.030;4.586;2023-07-20T07:20:28;28752.56;;;-144.41;100.00
41684;BME280;27369;52.030;4.586;2023-07-20T07:22:54;34550.59;;;-144.41;100.00
41684;BME280;27369;52.030;4.586;2023-07-20T07:25:20;56813.59;;;-144.41;100.00
41684;BME280;27369;52.030;4.586;2023-07-20T07:27:46;64686.16;;;-144.41;100.00
41684;BME280;27369;52.030;4.586;2023-07-20T07:30:11;64431.97;;;-144.41;100.00
41684;BME280;27369;52.030;4.586;2023-07-20T07:32:37;60113.09;;;-144.41;100.00
41684;BME280;27369;52.030;4.586;2023-07-20T07:35:02;59605.31;;;-144.41;100.00
41684;BME280;27369;52.030;4.586;2023-07-20T07:37:27;69264.50;;;-144.41;100.00
41684;BME280;27369;52.030;4.586;2023-07-20T07:39:53;84563.56;;;-144.41;100.00
41684;BME280;27369;52.030;4.586;2023-07-20T07:42:18;95307.66;;;-144.41;100.00
41684;BME280;27369;52.030;4.586;2023-07-20T07:44:44;-17571.56;;;-144.41;100.00
41684;BME280;27369;52.030;4.586;2023-07-20T07:47:09;-18815.84;;;-144.41;100.00
41684;BME280;27369;52.030;4.586;2023-07-20T07:49:34;-18069.31;;;-144.41;100.00
41684;BME280;27369;52.030;4.586;2023-07-20T07:52:00;-17571.56;;;-144.41;100.00
41684;BME280;27369;52.030;4.586;2023-07-20T07:54:27;-17322.66;;;-144.41;100.00
41684;BME280;27369;52.030;4.586;2023-07-20T07:56:53;-20557.19;;;-144.41;100.00
41684;BME280;27369;52.030;4.586;2023-07-20T07:59:18;-20807.34;;;-144.41;100.00
41684;BME280;27369;52.030;4.586;2023-07-20T08:01:43;-20807.34;;;-144.41;100.00
41684;BME280;27369;52.030;4.586;2023-07-20T08:04:08;-20807.34;;;-144.41;100.00
41684;BME280;27369;52.030;4.586;2023-07-20T08:06:34;-20807.34;;;-144.41;100.00
41684;BME280;27369;52.030;4.586;2023-07-20T08:08:59;-20807.34;;;-144.41;100.00
41684;BME280;27369;52.030;4.586;2023-07-20T08:11:25;-20807.34;;;-144.41;100.00
41684;BME280;27369;52.030;4.586;2023-07-20T08:13:50;-20807.34;;;-144.41;100.00
41684;BME280;27369;52.030;4.586;2023-07-20T08:16:16;-20807.34;;;-144.41;100.00
41684;BME280;27369;52.030;4.586;2023-07-20T08:18:41;-20807.34;;;-144.41;100.00
41684;BME280;27369;52.030;4.586;2023-07-20T08:21:07;-20807.34;;;-144.41;100.00
41684;BME280;27369;52.030;4.586;2023-07-20T08:23:32;-20807.34;;;-144.41;100.00
41684;BME280;27369;52.030;4.586;2023-07-20T08:25:57;-20807.34;;;-144.41;100.00
41684;BME280;27369;52.030;4.586;2023-07-20T08:28:23;-20807.34;;;-144.41;100.00
41684;BME280;27369;52.030;4.586;2023-07-20T08:30:49;-20807.34;;;-144.41;100.00
41684;BME280;27369;52.030;4.586;2023-07-20T08:33:14;-20807.34;;;-144.41;100.00
41684;BME280;27369;52.030;4.586;2023-07-20T08:35:40;-20807.34;;;-144.41;100.00
41684;BME280;27369;52.030;4.586;2023-07-20T08:38:06;-20807.34;;;-144.41;100.00
41684;BME280;27369;52.030;4.586;2023-07-20T08:40:32;-20807.34;;;-144.41;100.00
41684;BME280;27369;52.030;4.586;2023-07-20T08:43:01;-20807.34;;;-144.41;100.00
41684;BME280;27369;52.030;4.586;2023-07-20T08:45:27;-20807.34;;;-144.41;100.00
41684;BME280;27369;52.030;4.586;2023-07-20T08:47:57;-20807.34;;;-144.41;100.00
41684;BME280;27369;52.030;4.586;2023-07-20T08:50:24;-20807.34;;;-144.41;100.00
41684;BME280;27369;52.030;4.586;2023-07-20T08:52:50;-20807.34;;;-144.41;100.00
41684;BME280;27369;52.030;4.586;2023-07-20T08:55:17;-20807.34;;;-144.41;100.00
41684;BME280;27369;52.030;4.586;2023-07-20T08:57:43;-20807.34;;;-144.41;100.00
41684;BME280;27369;52.030;4.586;2023-07-20T09:00:11;-20807.34;;;-144.41;100.00
41684;BME280;27369;52.030;4.586;2023-07-20T09:02:38;-20807.34;;;-144.41;100.00
41684;BME280;27369;52.030;4.586;2023-07-20T09:05:07;-20807.34;;;-144.41;100.00
41684;BME280;27369;52.030;4.586;2023-07-20T09:07:32;-20807.34;;;-144.41;100.00
41684;BME280;27369;52.030;4.586;2023-07-20T09:09:58;-20807.34;;;-144.41;100.00
41684;BME280;27369;52.030;4.586;2023-07-20T09:12:23;-20807.34;;;-144.41;100.00
41684;BME280;27369;52.030;4.586;2023-07-20T09:14:49;-20807.34;;;-144.41;100.00
41684;BME280;27369;52.030;4.586;2023-07-20T09:17:14;-20807.34;;;-144.41;100.00
41684;BME280;27369;52.030;4.586;2023-07-20T09:19:46;-20807.34;;;-144.41;100.00
41684;BME280;27369;52.030;4.586;2023-07-20T09:22:12;-20807.34;;;-144.41;100.00
41684;BME280;27369;52.030;4.586;2023-07-20T09:24:37;-20807.34;;;-144.41;100.00
41684;BME280;27369;52.030;4.586;2023-07-20T09:27:03;-20807.34;;;-144.41;100.00
41684;BME280;27369;52.030;4.586;2023-07-20T09:29:31;-20807.34;;;-144.41;100.00
41684;BME280;27369;52.030;4.586;2023-07-20T09:34:29;-20807.34;;;-144.41;100.00
41684;BME280;27369;52.030;4.586;2023-07-20T09:36:55;-20807.34;;;-144.41;100.00
41684;BME280;27369;52.030;4.586;2023-07-20T09:39:20;-20807.34;;;-144.41;100.00
41684;BME280;27369;52.030;4.586;2023-07-20T09:41:46;-20807.34;;;-144.41;100.00
41684;BME280;27369;52.030;4.586;2023-07-20T09:44:12;-20807.34;;;-144.41;100.00
41684;BME280;27369;52.030;4.586;2023-07-20T09:46:44;-20557.19;;;-144.41;100.00
41684;BME280;27369;52.030;4.586;2023-07-20T09:49:10;-17820.44;;;-144.41;100.00
41684;BME280;27369;52.030;4.586;2023-07-20T09:51:36;-13836.22;;;-144.41;100.00
41684;BME280;27369;52.030;4.586;2023-07-20T09:54:01;3711.97;;;-144.41;100.00
41684;BME280;27369;52.030;4.586;2023-07-20T09:56:28;36908.50;;;-144.41;100.00
41684;BME280;27369;52.030;4.586;2023-07-20T09:58:55;25239.34;;;-144.41;100.00
41684;BME280;27369;52.030;4.586;2023-07-20T10:01:20;45796.84;;;-144.41;100.00
41684;BME280;27369;52.030;4.586;2023-07-20T10:03:47;30482.81;;;-144.41;100.00
41684;BME280;27369;52.030;4.586;2023-07-20T10:06:15;38133.34;;;-144.41;100.00
41684;BME280;27369;52.030;4.586;2023-07-20T10:08:43;29829.19;;;-144.41;100.00
41684;BME280;27369;52.030;4.586;2023-07-20T10:11:11;30012.28;;;-144.41;100.00
41684;BME280;27369;52.030;4.586;2023-07-20T10:13:38;28046.13;;;-144.41;100.00
41684;BME280;27369;52.030;4.586;2023-07-20T10:16:15;27979.22;;;-144.41;100.00
41684;BME280;27369;52.030;4.586;2023-07-20T10:18:48;26790.97;;;-144.41;100.00
41684;BME280;27369;52.030;4.586;2023-07-20T10:21:14;26572.66;;;-144.41;100.00
41684;BME280;27369;52.030;4.586;2023-07-20T10:23:42;26057.34;;;-144.41;100.00
41684;BME280;27369;52.030;4.586;2023-07-20T10:26:07;26006.22;;;-144.41;100.00
41684;BME280;27369;52.030;4.586;2023-07-20T10:28:33;24191.47;;;-144.41;100.00
41684;BME280;27369;52.030;4.586;2023-07-20T10:30:58;25101.69;;;-144.41;100.00
41684;BME280;27369;52.030;4.586;2023-07-20T10:33:24;24502.06;;;-144.41;100.00
41684;BME280;27369;52.030;4.586;2023-07-20T10:35:50;26372.03;;;-144.41;100.00
41684;BME280;27369;52.030;4.586;2023-07-20T10:38:15;25034.84;;;-144.41;100.00
41684;BME280;27369;52.030;4.586;2023-07-20T10:40:41;27544.41;;;-144.41;100.00
41684;BME280;27369;52.030;4.586;2023-07-20T10:43:07;27442.09;;;-144.41;100.00
41684;BME280;27369;52.030;4.586;2023-07-20T10:48:12;29894.16;;;-144.41;100.00
41684;BME280;27369;52.030;4.586;2023-07-20T10:50:39;30565.50;;;-144.41;100.00
41684;BME280;27369;52.030;4.586;2023-07-20T10:53:14;31721.41;;;-144.41;100.00
41684;BME280;27369;52.030;4.586;2023-07-20T10:55:43;30612.75;;;-144.41;100.00
41684;BME280;27369;52.030;4.586;2023-07-20T10:58:12;31110.91;;;-144.41;100.00
41684;BME280;27369;52.030;4.586;2023-07-20T11:03:40;29742.59;;;-144.41;100.00
41684;BME280;27369;52.030;4.586;2023-07-20T11:08:49;26690.66;;;-144.41;100.00
41684;BME280;27369;52.030;4.586;2023-07-20T11:11:23;25546.06;;;-144.41;100.00
41684;BME280;27369;52.030;4.586;2023-07-20T11:16:31;27302.44;;;-144.41;100.00
41684;BME280;27369;52.030;4.586;2023-07-20T11:18:57;29626.44;;;-144.41;100.00
41684;BME280;27369;52.030;4.586;2023-07-20T11:21:23;30016.22;;;-144.41;100.00
41684;BME280;27369;52.030;4.586;2023-07-20T11:23:48;29756.38;;;-144.41;100.00
41684;BME280;27369;52.030;4.586;2023-07-20T11:26:13;29764.25;;;-144.41;100.00
41684;BME280;27369;52.030;4.586;2023-07-20T11:28:40;28837.19;;;-144.41;100.00
41684;BME280;27369;52.030;4.586;2023-07-20T11:31:06;28551.84;;;-144.41;100.00
41684;BME280;27369;52.030;4.586;2023-07-20T11:33:31;28884.41;;;-144.41;100.00
41684;BME280;27369;52.030;4.586;2023-07-20T11:35:56;28648.25;;;-144.41;100.00
41684;BME280;27369;52.030;4.586;2023-07-20T11:38:23;28823.41;;;-144.41;100.00
41684;BME280;27369;52.030;4.586;2023-07-20T11:40:48;29293.78;;;-144.41;100.00
41684;BME280;27369;52.030;4.586;2023-07-20T11:43:14;30559.59;;;-144.41;100.00
41684;BME280;27369;52.030;4.586;2023-07-20T11:45:40;30917.94;;;-144.41;100.00
41684;BME280;27369;52.030;4.586;2023-07-20T11:48:05;30852.97;;;-144.41;100.00
41684;BME280;27369;52.030;4.586;2023-07-20T11:50:31;31309.81;;;-144.41;100.00
41684;BME280;27369;52.030;4.586;2023-07-20T11:52:57;32150.78;;;-144.41;100.00
41684;BME280;27369;52.030;4.586;2023-07-20T11:55:22;32113.34;;;-144.41;100.00
41684;BME280;27369;52.030;4.586;2023-07-20T11:58:03;31465.38;;;-144.41;100.00
41684;BME280;27369;52.030;4.586;2023-07-20T12:00:29;31654.44;;;-144.41;100.00
41684;BME280;27369;52.030;4.586;2023-07-20T12:02:54;32304.41;;;-144.41;100.00
41684;BME280;27369;52.030;4.586;2023-07-20T12:05:21;32176.38;;;-144.41;100.00
41684;BME280;27369;52.030;4.586;2023-07-20T12:07:47;32379.25;;;-144.41;100.00
41684;BME280;27369;52.030;4.586;2023-07-20T12:10:15;32627.47;;;-144.41;100.00
41684;BME280;27369;52.030;4.586;2023-07-20T12:12:41;32852.03;;;-144.41;100.00
41684;BME280;27369;52.030;4.586;2023-07-20T12:15:22;32528.97;;;-144.41;100.00
41684;BME280;27369;52.030;4.586;2023-07-20T12:17:55;32869.78;;;-144.41;100.00
41684;BME280;27369;52.030;4.586;2023-07-20T12:22:52;33192.88;;;-144.41;100.00
41684;BME280;27369;52.030;4.586;2023-07-20T12:25:17;32792.94;;;-144.41;100.00
41684;BME280;27369;52.030;4.586;2023-07-20T12:27:45;32854.00;;;-144.41;100.00
41684;BME280;27369;52.030;4.586;2023-07-20T12:30:10;32958.44;;;-144.41;100.00
41684;BME280;27369;52.030;4.586;2023-07-20T12:32:36;33210.59;;;-144.41;100.00
41684;BME280;27369;52.030;4.586;2023-07-20T12:35:01;32688.53;;;-144.41;100.00
41684;BME280;27369;52.030;4.586;2023-07-20T12:37:27;33287.44;;;-144.41;100.00
41684;BME280;27369;52.030;4.586;2023-07-20T12:39:52;33594.81;;;-144.41;100.00
41684;BME280;27369;52.030;4.586;2023-07-20T12:42:18;34069.72;;;-144.41;100.00
41684;BME280;27369;52.030;4.586;2023-07-20T12:44:43;34180.06;;;-144.41;100.00
41684;BME280;27369;52.030;4.586;2023-07-20T12:47:08;33939.66;;;-144.41;100.00